sensor_id;sensor_type;location;lat;lon;timestamp;pressure;altitude;pressure_sealevel;temperature;humidity
1480;BME280;732;51.698;4.886;2023-03-03T00:01:07;102551.50;;;-2.19;80.69
1480;BME280;732;51.698;4.886;2023-03-03T00:03:35;102568.38;;;-2.25;81.94
1480;BME280;732;51.698;4.886;2023-03-03T00:06:05;102561.53;;;-2.31;81.79
1480;BME280;732;51.698;4.886;2023-03-03T00:08:36;102568.22;;;-2.20;81.54
1480;BME280;732;51.698;4.886;2023-03-03T00:11:06;102552.97;;;-2.36;82.30
1480;BME280;732;51.698;4.886;2023-03-03T00:13:45;102580.19;;;-2.13;81.67
1480;BME280;732;51.698;4.886;2023-03-03T00:16:20;102580.91;;;-2.33;82.19
1480;BME280;732;51.698;4.886;2023-03-03T00:18:50;102556.13;;;-2.26;81.80
1480;BME280;732;51.698;4.886;2023-03-03T00:21:26;102555.81;;;-2.42;82.42
1480;BME280;732;51.698;4.886;2023-03-03T00:24:21;102572.25;;;-2.35;81.97
1480;BME280;732;51.698;4.886;2023-03-03T00:26:53;102550.69;;;-2.45;81.70
1480;BME280;732;51.698;4.886;2023-03-03T00:29:33;102569.19;;;-2.23;80.93
1480;BME280;732;51.698;4.886;2023-03-03T00:32:21;102555.44;;;-2.31;81.54
1480;BME280;732;51.698;4.886;2023-03-03T00:34:52;102561.03;;;-2.17;80.57
1480;BME280;732;51.698;4.886;2023-03-03T00:37:31;102568.25;;;-2.22;80.78
1480;BME280;732;51.698;4.886;2023-03-03T00:40:20;102576.41;;;-2.30;80.96
1480;BME280;732;51.698;4.886;2023-03-03T00:42:53;102548.22;;;-2.50;80.76
1480;BME280;732;51.698;4.886;2023-03-03T00:45:30;102581.59;;;-2.28;81.00
1480;BME280;732;51.698;4.886;2023-03-03T00:48:10;102546.06;;;-2.39;80.96
1480;BME280;732;51.698;4.886;2023-03-03T00:50:45;102576.31;;;-2.27;80.23
1480;BME280;732;51.698;4.886;2023-03-03T00:53:15;102574.31;;;-2.20;80.13
1480;BME280;732;51.698;4.886;2023-03-03T00:55:45;102575.97;;;-2.17;80.28
1480;BME280;732;51.698;4.886;2023-03-03T00:58:16;102550.91;;;-2.51;80.77
1480;BME280;732;51.698;4.886;2023-03-03T01:00:48;102575.16;;;-2.19;80.06
1480;BME280;732;51.698;4.886;2023-03-03T01:03:22;102556.94;;;-2.49;80.11
1480;BME280;732;51.698;4.886;2023-03-03T01:05:52;102578.63;;;-2.43;80.14
1480;BME280;732;51.698;4.886;2023-03-03T01:08:21;102567.69;;;-2.56;80.46
1480;BME280;732;51.698;4.886;2023-03-03T01:10:52;102530.41;;;-2.67;79.60
1480;BME280;732;51.698;4.886;2023-03-03T01:13:26;102531.97;;;-2.61;79.59
1480;BME280;732;51.698;4.886;2023-03-03T01:15:55;102561.63;;;-2.58;79.52
1480;BME280;732;51.698;4.886;2023-03-03T01:18:23;102579.00;;;-2.53;79.44
1480;BME280;732;51.698;4.886;2023-03-03T01:20:53;102588.50;;;-2.49;79.00
1480;BME280;732;51.698;4.886;2023-03-03T01:23:22;102585.06;;;-2.51;78.87
1480;BME280;732;51.698;4.886;2023-03-03T01:25:50;102580.66;;;-2.76;80.36
1480;BME280;732;51.698;4.886;2023-03-03T01:28:19;102587.44;;;-2.69;79.96
1480;BME280;732;51.698;4.886;2023-03-03T01:30:49;102577.34;;;-2.81;81.02
1480;BME280;732;51.698;4.886;2023-03-03T01:33:18;102565.38;;;-2.90;80.55
1480;BME280;732;51.698;4.886;2023-03-03T01:35:47;102568.78;;;-2.88;80.64
1480;BME280;732;51.698;4.886;2023-03-03T01:38:15;102576.44;;;-2.80;80.35
1480;BME280;732;51.698;4.886;2023-03-03T01:40:52;102577.00;;;-2.72;80.10
1480;BME280;732;51.698;4.886;2023-03-03T01:43:21;102569.66;;;-2.88;79.50
1480;BME280;732;51.698;4.886;2023-03-03T01:46:33;102586.00;;;-2.79;79.82
1480;BME280;732;51.698;4.886;2023-03-03T01:49:10;102593.41;;;-2.91;79.89
1480;BME280;732;51.698;4.886;2023-03-03T01:51:49;102576.63;;;-3.13;79.65
1480;BME280;732;51.698;4.886;2023-03-03T01:54:24;102551.25;;;-3.40;80.36
1480;BME280;732;51.698;4.886;2023-03-03T01:56:58;102589.47;;;-3.04;80.17
1480;BME280;732;51.698;4.886;2023-03-03T01:59:30;102562.47;;;-3.08;79.59
1480;BME280;732;51.698;4.886;2023-03-03T02:02:03;102558.66;;;-3.26;79.52
1480;BME280;732;51.698;4.886;2023-03-03T02:04:34;102598.41;;;-3.10;79.84
1480;BME280;732;51.698;4.886;2023-03-03T02:07:06;102548.41;;;-3.33;80.00
1480;BME280;732;51.698;4.886;2023-03-03T02:09:46;102574.00;;;-3.13;80.47
1480;BME280;732;51.698;4.886;2023-03-03T02:12:20;102604.47;;;-2.81;80.40
1480;BME280;732;51.698;4.886;2023-03-03T02:14:50;102585.72;;;-2.70;80.28
1480;BME280;732;51.698;4.886;2023-03-03T02:17:20;102571.13;;;-2.79;81.28
1480;BME280;732;51.698;4.886;2023-03-03T02:19:56;102597.03;;;-2.68;81.33
1480;BME280;732;51.698;4.886;2023-03-03T02:22:36;102582.84;;;-2.89;82.23
1480;BME280;732;51.698;4.886;2023-03-03T02:25:13;102563.03;;;-2.73;81.60
1480;BME280;732;51.698;4.886;2023-03-03T02:27:46;102590.53;;;-2.58;81.26
1480;BME280;732;51.698;4.886;2023-03-03T02:30:22;102582.75;;;-2.61;81.84
1480;BME280;732;51.698;4.886;2023-03-03T02:32:50;102574.44;;;-2.48;81.92
1480;BME280;732;51.698;4.886;2023-03-03T02:35:31;102593.31;;;-2.37;81.65
1480;BME280;732;51.698;4.886;2023-03-03T02:38:08;102599.38;;;-2.35;81.47
1480;BME280;732;51.698;4.886;2023-03-03T02:40:44;102594.63;;;-2.49;82.01
1480;BME280;732;51.698;4.886;2023-03-03T02:43:17;102555.41;;;-2.55;82.06
1480;BME280;732;51.698;4.886;2023-03-03T02:45:46;102598.25;;;-2.28;81.92
1480;BME280;732;51.698;4.886;2023-03-03T02:48:15;102570.13;;;-2.26;82.00
1480;BME280;732;51.698;4.886;2023-03-03T02:50:43;102565.69;;;-2.24;81.56
1480;BME280;732;51.698;4.886;2023-03-03T02:53:12;102582.56;;;-2.06;80.80
1480;BME280;732;51.698;4.886;2023-03-03T02:55:40;102590.03;;;-1.95;81.16
1480;BME280;732;51.698;4.886;2023-03-03T02:58:09;102576.94;;;-1.96;80.84
1480;BME280;732;51.698;4.886;2023-03-03T03:00:38;102584.91;;;-1.98;80.76
1480;BME280;732;51.698;4.886;2023-03-03T03:03:07;102588.38;;;-1.97;80.63
1480;BME280;732;51.698;4.886;2023-03-03T03:05:37;102590.00;;;-1.93;80.21
1480;BME280;732;51.698;4.886;2023-03-03T03:08:06;102586.84;;;-1.79;80.04
1480;BME280;732;51.698;4.886;2023-03-03T03:10:34;102593.47;;;-1.93;80.27
1480;BME280;732;51.698;4.886;2023-03-03T03:13:04;102582.34;;;-1.99;80.73
1480;BME280;732;51.698;4.886;2023-03-03T03:15:34;102574.59;;;-2.04;80.52
1480;BME280;732;51.698;4.886;2023-03-03T03:18:04;102558.94;;;-2.07;80.32
1480;BME280;732;51.698;4.886;2023-03-03T03:20:35;102596.56;;;-1.81;80.21
1480;BME280;732;51.698;4.886;2023-03-03T03:23:06;102589.34;;;-1.76;79.85
1480;BME280;732;51.698;4.886;2023-03-03T03:25:35;102596.91;;;-1.67;79.86
1480;BME280;732;51.698;4.886;2023-03-03T03:28:08;102555.28;;;-2.03;79.87
1480;BME280;732;51.698;4.886;2023-03-03T03:30:38;102572.66;;;-1.99;79.99
1480;BME280;732;51.698;4.886;2023-03-03T03:33:08;102573.84;;;-2.08;80.47
1480;BME280;732;51.698;4.886;2023-03-03T03:35:38;102587.00;;;-2.08;80.32
1480;BME280;732;51.698;4.886;2023-03-03T03:38:13;102586.38;;;-2.14;80.68
1480;BME280;732;51.698;4.886;2023-03-03T03:40:42;102586.63;;;-2.20;80.86
1480;BME280;732;51.698;4.886;2023-03-03T03:43:11;102613.84;;;-1.98;80.46
1480;BME280;732;51.698;4.886;2023-03-03T03:45:41;102596.03;;;-2.15;80.69
1480;BME280;732;51.698;4.886;2023-03-03T03:48:13;102614.06;;;-2.04;80.82
1480;BME280;732;51.698;4.886;2023-03-03T03:50:43;102570.34;;;-2.32;81.09
1480;BME280;732;51.698;4.886;2023-03-03T03:53:11;102591.06;;;-1.99;80.69
1480;BME280;732;51.698;4.886;2023-03-03T03:55:40;102591.88;;;-2.20;80.36
1480;BME280;732;51.698;4.886;2023-03-03T03:58:11;102606.63;;;-2.16;81.27
1480;BME280;732;51.698;4.886;2023-03-03T04:00:41;102596.09;;;-2.16;80.78
1480;BME280;732;51.698;4.886;2023-03-03T04:03:11;102615.88;;;-2.06;80.90
1480;BME280;732;51.698;4.886;2023-03-03T04:05:43;102603.16;;;-2.18;81.02
1480;BME280;732;51.698;4.886;2023-03-03T04:08:11;102620.28;;;-2.07;80.86
1480;BME280;732;51.698;4.886;2023-03-03T04:10:41;102598.09;;;-2.23;80.71
1480;BME280;732;51.698;4.886;2023-03-03T04:13:10;102617.53;;;-2.03;80.46
1480;BME280;732;51.698;4.886;2023-03-03T04:15:39;102621.06;;;-2.04;80.42
1480;BME280;732;51.698;4.886;2023-03-03T04:18:07;102610.38;;;-2.00;80.02
1480;BME280;732;51.698;4.886;2023-03-03T04:20:36;102616.34;;;-1.95;80.47
1480;BME280;732;51.698;4.886;2023-03-03T04:23:06;102617.25;;;-1.96;79.99
1480;BME280;732;51.698;4.886;2023-03-03T04:25:35;102629.69;;;-1.99;80.31
1480;BME280;732;51.698;4.886;2023-03-03T04:28:11;102628.06;;;-2.03;79.80
1480;BME280;732;51.698;4.886;2023-03-03T04:30:40;102599.03;;;-2.26;79.69
1480;BME280;732;51.698;4.886;2023-03-03T04:33:08;102627.09;;;-2.01;80.35
1480;BME280;732;51.698;4.886;2023-03-03T04:35:39;102633.50;;;-2.08;79.80
1480;BME280;732;51.698;4.886;2023-03-03T04:38:09;102630.00;;;-2.09;80.18
1480;BME280;732;51.698;4.886;2023-03-03T04:40:39;102603.56;;;-2.29;79.84
1480;BME280;732;51.698;4.886;2023-03-03T04:43:10;102630.69;;;-2.03;80.46
1480;BME280;732;51.698;4.886;2023-03-03T04:45:39;102638.34;;;-1.97;80.16
1480;BME280;732;51.698;4.886;2023-03-03T04:48:08;102636.53;;;-1.95;79.93
1480;BME280;732;51.698;4.886;2023-03-03T04:50:36;102593.25;;;-2.10;79.28
1480;BME280;732;51.698;4.886;2023-03-03T04:53:05;102628.13;;;-1.81;79.23
1480;BME280;732;51.698;4.886;2023-03-03T04:55:36;102627.38;;;-1.85;79.24
1480;BME280;732;51.698;4.886;2023-03-03T04:58:05;102633.38;;;-1.81;79.36
1480;BME280;732;51.698;4.886;2023-03-03T05:00:36;102637.06;;;-1.85;79.25
1480;BME280;732;51.698;4.886;2023-03-03T05:03:07;102648.03;;;-1.74;79.04
1480;BME280;732;51.698;4.886;2023-03-03T05:05:39;102624.66;;;-1.82;78.88
1480;BME280;732;51.698;4.886;2023-03-03T05:08:08;102635.69;;;-1.72;78.89
1480;BME280;732;51.698;4.886;2023-03-03T05:10:38;102638.53;;;-1.54;78.74
1480;BME280;732;51.698;4.886;2023-03-03T05:13:07;102648.56;;;-1.64;78.87
1480;BME280;732;51.698;4.886;2023-03-03T05:15:35;102640.94;;;-1.72;78.86
1480;BME280;732;51.698;4.886;2023-03-03T05:18:04;102649.06;;;-1.78;79.04
1480;BME280;732;51.698;4.886;2023-03-03T05:20:32;102617.50;;;-2.02;79.06
1480;BME280;732;51.698;4.886;2023-03-03T05:23:01;102630.81;;;-2.07;79.20
1480;BME280;732;51.698;4.886;2023-03-03T05:25:29;102653.06;;;-1.92;78.95
1480;BME280;732;51.698;4.886;2023-03-03T05:27:59;102649.63;;;-1.70;78.98
1480;BME280;732;51.698;4.886;2023-03-03T05:30:27;102647.50;;;-1.60;78.21
1480;BME280;732;51.698;4.886;2023-03-03T05:32:56;102655.25;;;-1.55;78.14
1480;BME280;732;51.698;4.886;2023-03-03T05:35:25;102640.00;;;-1.47;78.02
1480;BME280;732;51.698;4.886;2023-03-03T05:37:54;102646.97;;;-1.46;77.91
1480;BME280;732;51.698;4.886;2023-03-03T05:40:24;102642.59;;;-1.46;78.05
1480;BME280;732;51.698;4.886;2023-03-03T05:42:53;102639.88;;;-1.44;77.56
1480;BME280;732;51.698;4.886;2023-03-03T05:45:23;102644.13;;;-1.64;78.29
1480;BME280;732;51.698;4.886;2023-03-03T05:47:52;102650.88;;;-1.57;78.13
1480;BME280;732;51.698;4.886;2023-03-03T05:50:22;102629.69;;;-1.76;78.86
1480;BME280;732;51.698;4.886;2023-03-03T05:52:51;102621.19;;;-2.08;78.57
1480;BME280;732;51.698;4.886;2023-03-03T05:55:19;102662.50;;;-1.86;79.02
1480;BME280;732;51.698;4.886;2023-03-03T05:57:48;102648.81;;;-1.96;78.81
1480;BME280;732;51.698;4.886;2023-03-03T06:00:17;102657.91;;;-1.81;78.94
1480;BME280;732;51.698;4.886;2023-03-03T06:02:47;102670.75;;;-1.71;78.45
1480;BME280;732;51.698;4.886;2023-03-03T06:05:16;102666.63;;;-1.79;78.18
1480;BME280;732;51.698;4.886;2023-03-03T06:07:44;102671.38;;;-1.65;77.84
1480;BME280;732;51.698;4.886;2023-03-03T06:10:13;102674.06;;;-1.66;78.11
1480;BME280;732;51.698;4.886;2023-03-03T06:12:46;102669.94;;;-1.50;77.64
1480;BME280;732;51.698;4.886;2023-03-03T06:15:14;102672.28;;;-1.42;77.16
1480;BME280;732;51.698;4.886;2023-03-03T06:17:43;102678.16;;;-1.35;76.83
1480;BME280;732;51.698;4.886;2023-03-03T06:20:13;102645.25;;;-1.47;76.71
1480;BME280;732;51.698;4.886;2023-03-03T06:22:41;102678.84;;;-1.30;76.42
1480;BME280;732;51.698;4.886;2023-03-03T06:25:10;102685.28;;;-1.15;76.51
1480;BME280;732;51.698;4.886;2023-03-03T06:27:38;102690.38;;;-1.11;75.94
1480;BME280;732;51.698;4.886;2023-03-03T06:30:08;102689.50;;;-1.11;76.16
1480;BME280;732;51.698;4.886;2023-03-03T06:32:36;102697.84;;;-1.22;76.20
1480;BME280;732;51.698;4.886;2023-03-03T06:35:06;102652.97;;;-1.43;76.37
1480;BME280;732;51.698;4.886;2023-03-03T06:37:35;102693.88;;;-1.10;75.97
1480;BME280;732;51.698;4.886;2023-03-03T06:40:06;102696.63;;;-1.13;76.28
1480;BME280;732;51.698;4.886;2023-03-03T06:42:34;102698.66;;;-0.98;75.63
1480;BME280;732;51.698;4.886;2023-03-03T06:45:04;102697.59;;;-0.94;75.34
1480;BME280;732;51.698;4.886;2023-03-03T06:47:32;102693.31;;;-0.96;75.40
1480;BME280;732;51.698;4.886;2023-03-03T06:50:01;102709.44;;;-0.82;75.19
1480;BME280;732;51.698;4.886;2023-03-03T06:52:29;102711.22;;;-0.82;75.22
1480;BME280;732;51.698;4.886;2023-03-03T06:55:01;102704.97;;;-0.80;74.79
1480;BME280;732;51.698;4.886;2023-03-03T06:57:37;102721.88;;;-0.63;75.07
1480;BME280;732;51.698;4.886;2023-03-03T07:00:16;102702.53;;;-0.64;74.45
1480;BME280;732;51.698;4.886;2023-03-03T07:02:47;102669.47;;;-0.71;74.35
1480;BME280;732;51.698;4.886;2023-03-03T07:05:20;102720.88;;;-0.38;74.35
1480;BME280;732;51.698;4.886;2023-03-03T07:07:51;102710.44;;;-0.41;74.16
1480;BME280;732;51.698;4.886;2023-03-03T07:10:26;102723.97;;;-0.29;74.35
1480;BME280;732;51.698;4.886;2023-03-03T07:13:01;102692.81;;;-0.62;74.09
1480;BME280;732;51.698;4.886;2023-03-03T07:15:34;102730.69;;;-0.42;74.71
1480;BME280;732;51.698;4.886;2023-03-03T07:18:10;102725.34;;;-0.40;74.48
1480;BME280;732;51.698;4.886;2023-03-03T07:20:48;102729.75;;;-0.41;74.54
1480;BME280;732;51.698;4.886;2023-03-03T07:23:22;102716.56;;;-0.41;74.37
1480;BME280;732;51.698;4.886;2023-03-03T07:25:52;102729.63;;;-0.38;74.58
1480;BME280;732;51.698;4.886;2023-03-03T07:28:24;102737.78;;;-0.44;75.10
1480;BME280;732;51.698;4.886;2023-03-03T07:30:55;102734.63;;;-0.52;75.31
1480;BME280;732;51.698;4.886;2023-03-03T07:33:27;102718.91;;;-0.55;75.28
1480;BME280;732;51.698;4.886;2023-03-03T07:35:58;102700.13;;;-0.68;75.71
1480;BME280;732;51.698;4.886;2023-03-03T07:38:34;102742.69;;;-0.35;75.30
1480;BME280;732;51.698;4.886;2023-03-03T07:41:13;102745.34;;;-0.35;75.87
1480;BME280;732;51.698;4.886;2023-03-03T07:43:48;102733.91;;;-0.35;74.84
1480;BME280;732;51.698;4.886;2023-03-03T07:46:33;102752.78;;;-0.24;75.13
1480;BME280;732;51.698;4.886;2023-03-03T07:49:20;102754.06;;;-0.12;75.02
1480;BME280;732;51.698;4.886;2023-03-03T07:51:54;102760.06;;;-0.08;74.64
1480;BME280;732;51.698;4.886;2023-03-03T07:54:30;102758.28;;;-0.08;74.31
1480;BME280;732;51.698;4.886;2023-03-03T07:57:19;102761.31;;;0.03;74.81
1480;BME280;732;51.698;4.886;2023-03-03T07:59:50;102766.47;;;0.07;74.26
1480;BME280;732;51.698;4.886;2023-03-03T08:02:36;102762.91;;;0.08;74.79
1480;BME280;732;51.698;4.886;2023-03-03T08:05:34;102768.31;;;0.04;75.06
1480;BME280;732;51.698;4.886;2023-03-03T08:08:27;102751.75;;;0.01;74.46
1480;BME280;732;51.698;4.886;2023-03-03T08:10:57;102763.34;;;0.17;74.64
1480;BME280;732;51.698;4.886;2023-03-03T08:13:35;102776.50;;;0.19;74.41
1480;BME280;732;51.698;4.886;2023-03-03T08:16:27;102775.31;;;0.26;74.82
1480;BME280;732;51.698;4.886;2023-03-03T08:19:02;102777.69;;;0.12;74.96
1480;BME280;732;51.698;4.886;2023-03-03T08:21:31;102775.13;;;0.10;75.48
1480;BME280;732;51.698;4.886;2023-03-03T08:24:00;102779.78;;;0.24;74.46
1480;BME280;732;51.698;4.886;2023-03-03T08:26:29;102787.56;;;0.27;75.29
1480;BME280;732;51.698;4.886;2023-03-03T08:28:58;102783.63;;;0.37;74.72
1480;BME280;732;51.698;4.886;2023-03-03T08:31:27;102774.75;;;0.38;74.41
1480;BME280;732;51.698;4.886;2023-03-03T08:34:07;102767.69;;;0.39;74.81
1480;BME280;732;51.698;4.886;2023-03-03T08:36:35;102785.66;;;0.70;74.20
1480;BME280;732;51.698;4.886;2023-03-03T08:39:04;102763.59;;;0.72;73.84
1480;BME280;732;51.698;4.886;2023-03-03T08:41:33;102770.09;;;0.83;73.40
1480;BME280;732;51.698;4.886;2023-03-03T08:44:03;102785.34;;;0.58;74.15
1480;BME280;732;51.698;4.886;2023-03-03T08:46:31;102799.50;;;0.76;73.29
1480;BME280;732;51.698;4.886;2023-03-03T08:49:00;102802.66;;;0.84;72.97
1480;BME280;732;51.698;4.886;2023-03-03T08:51:28;102795.66;;;0.83;73.71
1480;BME280;732;51.698;4.886;2023-03-03T08:53:57;102803.19;;;0.92;73.52
1480;BME280;732;51.698;4.886;2023-03-03T08:56:25;102800.38;;;0.95;73.20
1480;BME280;732;51.698;4.886;2023-03-03T08:58:54;102806.28;;;0.62;73.54
1480;BME280;732;51.698;4.886;2023-03-03T09:01:31;102745.84;;;0.35;73.75
1480;BME280;732;51.698;4.886;2023-03-03T09:04:00;102808.97;;;0.81;73.46
1480;BME280;732;51.698;4.886;2023-03-03T09:06:29;102812.78;;;0.74;73.61
1480;BME280;732;51.698;4.886;2023-03-03T09:08:57;102814.44;;;0.77;73.72
1480;BME280;732;51.698;4.886;2023-03-03T09:11:27;102774.31;;;0.29;74.19
1480;BME280;732;51.698;4.886;2023-03-03T09:14:05;102818.28;;;0.69;74.53
1480;BME280;732;51.698;4.886;2023-03-03T09:16:38;102822.56;;;0.72;74.31
1480;BME280;732;51.698;4.886;2023-03-03T09:19:23;102815.25;;;0.79;74.02
1480;BME280;732;51.698;4.886;2023-03-03T09:21:53;102815.53;;;0.92;74.10
1480;BME280;732;51.698;4.886;2023-03-03T09:24:27;102820.44;;;0.99;73.71
1480;BME280;732;51.698;4.886;2023-03-03T09:26:56;102813.75;;;1.11;73.48
1480;BME280;732;51.698;4.886;2023-03-03T09:29:28;102812.72;;;1.33;72.75
1480;BME280;732;51.698;4.886;2023-03-03T09:31:59;102817.13;;;1.51;71.85
1480;BME280;732;51.698;4.886;2023-03-03T09:34:37;102818.19;;;1.66;72.19
1480;BME280;732;51.698;4.886;2023-03-03T09:37:20;102793.66;;;1.63;71.77
1480;BME280;732;51.698;4.886;2023-03-03T09:39:51;102807.63;;;1.84;70.85
1480;BME280;732;51.698;4.886;2023-03-03T09:42:46;102792.31;;;1.91;70.15
1480;BME280;732;51.698;4.886;2023-03-03T09:45:42;102819.13;;;2.20;70.62
1480;BME280;732;51.698;4.886;2023-03-03T09:48:48;102827.06;;;2.20;69.32
1480;BME280;732;51.698;4.886;2023-03-03T09:51:56;102825.41;;;2.35;69.01
1480;BME280;732;51.698;4.886;2023-03-03T09:54:46;102802.75;;;2.11;69.13
1480;BME280;732;51.698;4.886;2023-03-03T09:57:25;102829.69;;;2.37;69.17
1480;BME280;732;51.698;4.886;2023-03-03T10:00:17;102829.00;;;2.34;69.54
1480;BME280;732;51.698;4.886;2023-03-03T10:03:01;102828.47;;;2.27;69.84
1480;BME280;732;51.698;4.886;2023-03-03T10:05:40;102820.56;;;2.25;70.16
1480;BME280;732;51.698;4.886;2023-03-03T10:08:28;102817.91;;;2.43;69.31
1480;BME280;732;51.698;4.886;2023-03-03T10:11:12;102826.69;;;2.61;69.40
1480;BME280;732;51.698;4.886;2023-03-03T10:13:59;102811.78;;;2.76;68.83
1480;BME280;732;51.698;4.886;2023-03-03T10:16:52;102829.72;;;3.20;67.79
1480;BME280;732;51.698;4.886;2023-03-03T10:19:36;102830.22;;;3.43;67.80
1480;BME280;732;51.698;4.886;2023-03-03T10:22:23;102836.28;;;3.61;66.74
1480;BME280;732;51.698;4.886;2023-03-03T10:25:12;102790.81;;;3.51;65.80
1480;BME280;732;51.698;4.886;2023-03-03T10:28:12;102830.94;;;3.77;65.66
1480;BME280;732;51.698;4.886;2023-03-03T10:30:53;102778.31;;;3.84;65.56
1480;BME280;732;51.698;4.886;2023-03-03T10:33:47;102827.28;;;4.24;63.90
1480;BME280;732;51.698;4.886;2023-03-03T10:36:42;102834.13;;;4.29;64.28
1480;BME280;732;51.698;4.886;2023-03-03T10:39:37;102838.19;;;4.50;63.69
1480;BME280;732;51.698;4.886;2023-03-03T10:42:36;102808.75;;;4.53;63.18
1480;BME280;732;51.698;4.886;2023-03-03T10:45:30;102799.72;;;4.56;62.46
1480;BME280;732;51.698;4.886;2023-03-03T10:48:32;102830.78;;;4.84;62.46
1480;BME280;732;51.698;4.886;2023-03-03T10:51:17;102827.28;;;4.84;62.14
1480;BME280;732;51.698;4.886;2023-03-03T10:54:02;102827.09;;;5.01;61.69
1480;BME280;732;51.698;4.886;2023-03-03T10:56:45;102798.88;;;4.99;61.39
1480;BME280;732;51.698;4.886;2023-03-03T10:59:44;102819.19;;;5.42;60.99
1480;BME280;732;51.698;4.886;2023-03-03T11:02:21;102815.47;;;5.44;60.71
1480;BME280;732;51.698;4.886;2023-03-03T11:05:23;102824.13;;;5.48;59.36
1480;BME280;732;51.698;4.886;2023-03-03T11:08:00;102825.94;;;5.47;60.04
1480;BME280;732;51.698;4.886;2023-03-03T11:10:51;102827.81;;;5.60;58.07
1480;BME280;732;51.698;4.886;2023-03-03T11:13:32;102817.84;;;5.76;59.36
1480;BME280;732;51.698;4.886;2023-03-03T11:16:27;102824.25;;;5.86;59.55
1480;BME280;732;51.698;4.886;2023-03-03T11:19:11;102827.41;;;6.06;58.81
1480;BME280;732;51.698;4.886;2023-03-03T11:21:49;102823.72;;;5.94;57.55
1480;BME280;732;51.698;4.886;2023-03-03T11:24:47;102821.88;;;5.82;58.90
1480;BME280;732;51.698;4.886;2023-03-03T11:27:59;102816.84;;;6.04;58.56
1480;BME280;732;51.698;4.886;2023-03-03T11:30:55;102812.31;;;6.58;58.00
1480;BME280;732;51.698;4.886;2023-03-03T11:33:34;102806.22;;;6.69;56.07
1480;BME280;732;51.698;4.886;2023-03-03T11:36:12;102812.63;;;6.66;55.64
1480;BME280;732;51.698;4.886;2023-03-03T11:38:53;102771.06;;;6.38;54.25
1480;BME280;732;51.698;4.886;2023-03-03T11:41:32;102804.09;;;6.35;53.25
1480;BME280;732;51.698;4.886;2023-03-03T11:44:10;102811.22;;;6.35;54.96
1480;BME280;732;51.698;4.886;2023-03-03T11:46:48;102803.88;;;6.26;54.31
1480;BME280;732;51.698;4.886;2023-03-03T11:49:22;102773.72;;;5.72;55.66
1480;BME280;732;51.698;4.886;2023-03-03T11:52:02;102774.13;;;5.66;55.41
1480;BME280;732;51.698;4.886;2023-03-03T11:54:37;102802.22;;;5.84;57.44
1480;BME280;732;51.698;4.886;2023-03-03T11:57:17;102802.56;;;6.06;56.87
1480;BME280;732;51.698;4.886;2023-03-03T11:59:59;102767.06;;;6.05;56.67
1480;BME280;732;51.698;4.886;2023-03-03T12:02:57;102786.66;;;6.04;55.23
1480;BME280;732;51.698;4.886;2023-03-03T12:05:41;102785.06;;;6.01;56.83
1480;BME280;732;51.698;4.886;2023-03-03T12:08:28;102781.97;;;5.95;57.17
1480;BME280;732;51.698;4.886;2023-03-03T12:11:05;102774.41;;;6.01;58.94
1480;BME280;732;51.698;4.886;2023-03-03T12:13:52;102787.19;;;6.09;54.49
1480;BME280;732;51.698;4.886;2023-03-03T12:16:39;102784.03;;;6.30;57.56
1480;BME280;732;51.698;4.886;2023-03-03T12:19:27;102765.47;;;6.28;56.51
1480;BME280;732;51.698;4.886;2023-03-03T12:22:13;102782.03;;;6.59;53.74
1480;BME280;732;51.698;4.886;2023-03-03T12:25:01;102776.53;;;6.87;57.20
1480;BME280;732;51.698;4.886;2023-03-03T12:27:38;102775.63;;;6.99;54.78
1480;BME280;732;51.698;4.886;2023-03-03T12:30:19;102763.09;;;6.88;53.56
1480;BME280;732;51.698;4.886;2023-03-03T12:33:07;102753.72;;;6.70;51.86
1480;BME280;732;51.698;4.886;2023-03-03T12:35:46;102766.66;;;7.00;55.83
1480;BME280;732;51.698;4.886;2023-03-03T12:38:32;102739.00;;;6.64;53.08
1480;BME280;732;51.698;4.886;2023-03-03T12:41:10;102761.69;;;6.82;54.35
1480;BME280;732;51.698;4.886;2023-03-03T12:43:53;102737.94;;;7.04;55.27
1480;BME280;732;51.698;4.886;2023-03-03T12:46:34;102753.44;;;7.47;53.16
1480;BME280;732;51.698;4.886;2023-03-03T12:49:06;102724.69;;;7.51;50.60
1480;BME280;732;51.698;4.886;2023-03-03T12:51:47;102747.88;;;7.86;51.84
1480;BME280;732;51.698;4.886;2023-03-03T12:54:43;102761.94;;;8.23;50.22
1480;BME280;732;51.698;4.886;2023-03-03T12:57:23;102752.69;;;8.16;49.72
1480;BME280;732;51.698;4.886;2023-03-03T13:00:23;102759.66;;;8.19;49.60
1480;BME280;732;51.698;4.886;2023-03-03T13:03:01;102726.69;;;8.07;51.37
1480;BME280;732;51.698;4.886;2023-03-03T13:05:46;102747.59;;;8.47;50.78
1480;BME280;732;51.698;4.886;2023-03-03T13:08:41;102750.16;;;8.26;48.29
1480;BME280;732;51.698;4.886;2023-03-03T13:11:38;102734.44;;;7.98;47.08
1480;BME280;732;51.698;4.886;2023-03-03T13:14:19;102740.09;;;7.82;49.37
1480;BME280;732;51.698;4.886;2023-03-03T13:17:03;102738.41;;;7.93;50.29
1480;BME280;732;51.698;4.886;2023-03-03T13:19:38;102739.44;;;8.37;51.17
1480;BME280;732;51.698;4.886;2023-03-03T13:22:12;102734.72;;;8.75;49.76
1480;BME280;732;51.698;4.886;2023-03-03T13:24:55;102734.59;;;8.65;45.55
1480;BME280;732;51.698;4.886;2023-03-03T13:27:31;102731.84;;;8.99;48.15
1480;BME280;732;51.698;4.886;2023-03-03T13:30:03;102738.19;;;8.98;44.48
1480;BME280;732;51.698;4.886;2023-03-03T13:32:45;102728.78;;;8.60;45.05
1480;BME280;732;51.698;4.886;2023-03-03T13:35:29;102740.56;;;8.35;45.90
1480;BME280;732;51.698;4.886;2023-03-03T13:38:02;102715.75;;;8.44;45.32
1480;BME280;732;51.698;4.886;2023-03-03T13:40:41;102713.88;;;8.90;46.81
1480;BME280;732;51.698;4.886;2023-03-03T13:43:17;102716.66;;;9.32;45.13
1480;BME280;732;51.698;4.886;2023-03-03T13:45:58;102724.75;;;9.53;44.02
1480;BME280;732;51.698;4.886;2023-03-03T13:48:44;102728.41;;;9.52;43.95
1480;BME280;732;51.698;4.886;2023-03-03T13:51:26;102721.69;;;8.82;42.42
1480;BME280;732;51.698;4.886;2023-03-03T13:54:06;102710.28;;;8.34;43.78
1480;BME280;732;51.698;4.886;2023-03-03T13:56:55;102726.41;;;7.98;44.39
1480;BME280;732;51.698;4.886;2023-03-03T13:59:36;102722.91;;;7.62;44.27
1480;BME280;732;51.698;4.886;2023-03-03T14:02:28;102719.47;;;7.25;46.41
1480;BME280;732;51.698;4.886;2023-03-03T14:05:05;102718.00;;;7.45;45.37
1480;BME280;732;51.698;4.886;2023-03-03T14:07:43;102716.81;;;8.07;45.79
1480;BME280;732;51.698;4.886;2023-03-03T14:10:20;102718.06;;;8.26;43.18
1480;BME280;732;51.698;4.886;2023-03-03T14:13:02;102713.41;;;7.94;43.42
1480;BME280;732;51.698;4.886;2023-03-03T14:15:34;102715.16;;;8.40;44.22